sensor_id;sensor_type;location;lat;lon;timestamp;temperature;humidity
67820;DHT22;54618;52.018;5.576;2022-12-16T00:02:02;12.80;43.90
67820;DHT22;54618;52.018;5.576;2022-12-16T00:04:27;12.80;43.80
67820;DHT22;54618;52.018;5.576;2022-12-16T00:06:53;12.80;43.80
67820;DHT22;54618;52.018;5.576;2022-12-16T00:09:18;12.80;43.80
67820;DHT22;54618;52.018;5.576;2022-12-16T00:11:44;12.80;43.80
67820;DHT22;54618;52.018;5.576;2022-12-16T00:14:10;12.80;43.90
67820;DHT22;54618;52.018;5.576;2022-12-16T00:16:35;12.80;43.90
67820;DHT22;54618;52.018;5.576;2022-12-16T00:19:01;12.80;43.90
67820;DHT22;54618;52.018;5.576;2022-12-16T00:21:27;12.80;43.90
67820;DHT22;54618;52.018;5.576;2022-12-16T00:23:54;12.80;43.90
67820;DHT22;54618;52.018;5.576;2022-12-16T00:26:21;12.80;43.90
67820;DHT22;54618;52.018;5.576;2022-12-16T00:28:46;12.80;43.80
67820;DHT22;54618;52.018;5.576;2022-12-16T00:31:12;12.80;43.90
67820;DHT22;54618;52.018;5.576;2022-12-16T00:33:38;12.80;43.90
67820;DHT22;54618;52.018;5.576;2022-12-16T00:36:03;12.80;43.90
67820;DHT22;54618;52.018;5.576;2022-12-16T00:38:29;12.80;43.90
67820;DHT22;54618;52.018;5.576;2022-12-16T00:40:54;12.80;43.90
67820;DHT22;54618;52.018;5.576;2022-12-16T00:43:20;12.80;43.90
67820;DHT22;54618;52.018;5.576;2022-12-16T00:45:46;12.80;43.90
67820;DHT22;54618;52.018;5.576;2022-12-16T00:48:12;12.80;43.90
67820;DHT22;54618;52.018;5.576;2022-12-16T00:50:38;12.80;43.90
67820;DHT22;54618;52.018;5.576;2022-12-16T00:53:04;12.80;43.90
67820;DHT22;54618;52.018;5.576;2022-12-16T00:55:30;12.80;43.90
67820;DHT22;54618;52.018;5.576;2022-12-16T00:57:57;12.80;43.90
67820;DHT22;54618;52.018;5.576;2022-12-16T01:00:22;12.80;43.90
67820;DHT22;54618;52.018;5.576;2022-12-16T01:02:48;12.80;43.90
67820;DHT22;54618;52.018;5.576;2022-12-16T01:05:17;12.80;43.90
67820;DHT22;54618;52.018;5.576;2022-12-16T01:07:45;12.80;43.90
67820;DHT22;54618;52.018;5.576;2022-12-16T01:10:11;12.80;43.90
67820;DHT22;54618;52.018;5.576;2022-12-16T01:12:37;12.80;44.60
67820;DHT22;54618;52.018;5.576;2022-12-16T01:15:05;12.80;43.90
67820;DHT22;54618;52.018;5.576;2022-12-16T01:17:31;12.80;43.90
67820;DHT22;54618;52.018;5.576;2022-12-16T01:19:57;12.80;43.90
67820;DHT22;54618;52.018;5.576;2022-12-16T01:22:22;12.70;43.90
67820;DHT22;54618;52.018;5.576;2022-12-16T01:24:48;12.80;43.90
67820;DHT22;54618;52.018;5.576;2022-12-16T01:27:14;12.80;44.00
67820;DHT22;54618;52.018;5.576;2022-12-16T01:29:40;12.80;44.00
67820;DHT22;54618;52.018;5.576;2022-12-16T01:32:07;12.80;44.00
67820;DHT22;54618;52.018;5.576;2022-12-16T01:34:33;12.80;44.00
67820;DHT22;54618;52.018;5.576;2022-12-16T01:36:59;12.80;44.00
67820;DHT22;54618;52.018;5.576;2022-12-16T01:39:24;12.80;44.00
67820;DHT22;54618;52.018;5.576;2022-12-16T01:41:51;12.80;44.00
67820;DHT22;54618;52.018;5.576;2022-12-16T01:44:19;12.80;44.00
67820;DHT22;54618;52.018;5.576;2022-12-16T01:49:27;12.80;44.00
67820;DHT22;54618;52.018;5.576;2022-12-16T01:51:59;12.80;44.00
67820;DHT22;54618;52.018;5.576;2022-12-16T01:54:37;12.80;44.00
67820;DHT22;54618;52.018;5.576;2022-12-16T01:57:07;12.80;44.10
67820;DHT22;54618;52.018;5.576;2022-12-16T01:59:36;12.80;44.10
67820;DHT22;54618;52.018;5.576;2022-12-16T02:02:03;12.80;44.10
67820;DHT22;54618;52.018;5.576;2022-12-16T02:04:29;12.80;44.10
67820;DHT22;54618;52.018;5.576;2022-12-16T02:06:55;12.80;44.10
67820;DHT22;54618;52.018;5.576;2022-12-16T02:09:21;12.80;44.10
67820;DHT22;54618;52.018;5.576;2022-12-16T02:12:09;12.80;44.10
67820;DHT22;54618;52.018;5.576;2022-12-16T02:17:13;12.80;44.20
67820;DHT22;54618;52.018;5.576;2022-12-16T02:28:02;12.80;44.20
67820;DHT22;54618;52.018;5.576;2022-12-16T02:30:37;12.80;44.20
67820;DHT22;54618;52.018;5.576;2022-12-16T02:33:17;12.80;44.20
67820;DHT22;54618;52.018;5.576;2022-12-16T02:35:55;12.80;44.20
67820;DHT22;54618;52.018;5.576;2022-12-16T02:38:41;12.80;44.20
67820;DHT22;54618;52.018;5.576;2022-12-16T02:41:22;12.80;44.20
67820;DHT22;54618;52.018;5.576;2022-12-16T02:43:58;12.80;44.30
67820;DHT22;54618;52.018;5.576;2022-12-16T02:46:28;12.80;44.30
67820;DHT22;54618;52.018;5.576;2022-12-16T02:48:55;12.80;44.30
67820;DHT22;54618;52.018;5.576;2022-12-16T02:51:23;12.80;45.00
67820;DHT22;54618;52.018;5.576;2022-12-16T02:53:51;12.80;44.30
67820;DHT22;54618;52.018;5.576;2022-12-16T02:59:07;12.70;44.30
67820;DHT22;54618;52.018;5.576;2022-12-16T03:01:50;12.80;44.40
67820;DHT22;54618;52.018;5.576;2022-12-16T03:04:34;12.80;44.40
67820;DHT22;54618;52.018;5.576;2022-12-16T03:07:03;12.80;44.40
67820;DHT22;54618;52.018;5.576;2022-12-16T03:09:34;12.80;44.30
67820;DHT22;54618;52.018;5.576;2022-12-16T03:12:03;12.80;44.40
67820;DHT22;54618;52.018;5.576;2022-12-16T03:14:32;12.80;44.40
67820;DHT22;54618;52.018;5.576;2022-12-16T03:16:59;12.80;44.40
67820;DHT22;54618;52.018;5.576;2022-12-16T03:19:25;12.80;44.40
67820;DHT22;54618;52.018;5.576;2022-12-16T03:22:01;12.80;44.40
67820;DHT22;54618;52.018;5.576;2022-12-16T03:24:28;12.80;44.40
67820;DHT22;54618;52.018;5.576;2022-12-16T03:27:11;12.80;44.40
67820;DHT22;54618;52.018;5.576;2022-12-16T03:30:04;12.80;44.40
67820;DHT22;54618;52.018;5.576;2022-12-16T03:32:55;12.80;44.40
67820;DHT22;54618;52.018;5.576;2022-12-16T03:37:52;12.80;44.50
67820;DHT22;54618;52.018;5.576;2022-12-16T03:40:20;12.80;44.50
67820;DHT22;54618;52.018;5.576;2022-12-16T03:42:47;12.80;44.50
67820;DHT22;54618;52.018;5.576;2022-12-16T03:45:17;12.80;44.50
67820;DHT22;54618;52.018;5.576;2022-12-16T03:47:49;12.80;44.50
67820;DHT22;54618;52.018;5.576;2022-12-16T03:50:17;12.80;44.50
67820;DHT22;54618;52.018;5.576;2022-12-16T03:52:44;12.80;44.50
67820;DHT22;54618;52.018;5.576;2022-12-16T03:55:09;12.80;44.60
67820;DHT22;54618;52.018;5.576;2022-12-16T03:57:34;12.80;44.50
67820;DHT22;54618;52.018;5.576;2022-12-16T04:00:00;12.80;44.60
67820;DHT22;54618;52.018;5.576;2022-12-16T04:02:25;12.70;44.50
67820;DHT22;54618;52.018;5.576;2022-12-16T04:04:51;12.80;44.60
67820;DHT22;54618;52.018;5.576;2022-12-16T04:07:16;12.80;44.60
67820;DHT22;54618;52.018;5.576;2022-12-16T04:09:45;12.80;44.60
67820;DHT22;54618;52.018;5.576;2022-12-16T04:12:11;12.80;44.60
67820;DHT22;54618;52.018;5.576;2022-12-16T04:14:55;12.80;44.60
67820;DHT22;54618;52.018;5.576;2022-12-16T04:17:39;12.80;44.60
67820;DHT22;54618;52.018;5.576;2022-12-16T04:20:30;12.80;44.60
67820;DHT22;54618;52.018;5.576;2022-12-16T04:23:15;12.80;44.60
67820;DHT22;54618;52.018;5.576;2022-12-16T04:25:58;12.80;44.70
67820;DHT22;54618;52.018;5.576;2022-12-16T04:28:24;12.80;44.30
67820;DHT22;54618;52.018;5.576;2022-12-16T04:30:49;12.80;44.70
67820;DHT22;54618;52.018;5.576;2022-12-16T04:33:15;12.80;44.70
67820;DHT22;54618;52.018;5.576;2022-12-16T04:36:00;12.80;44.70
67820;DHT22;54618;52.018;5.576;2022-12-16T04:38:44;12.80;44.70
67820;DHT22;54618;52.018;5.576;2022-12-16T04:41:28;12.80;44.80
67820;DHT22;54618;52.018;5.576;2022-12-16T04:44:12;12.80;44.80
67820;DHT22;54618;52.018;5.576;2022-12-16T04:46:56;12.80;44.80
67820;DHT22;54618;52.018;5.576;2022-12-16T04:49:40;12.80;44.80
67820;DHT22;54618;52.018;5.576;2022-12-16T04:52:25;12.70;44.70
67820;DHT22;54618;52.018;5.576;2022-12-16T04:55:09;12.80;44.80
67820;DHT22;54618;52.018;5.576;2022-12-16T04:57:56;12.80;44.80
67820;DHT22;54618;52.018;5.576;2022-12-16T05:00:41;12.80;44.80
67820;DHT22;54618;52.018;5.576;2022-12-16T05:03:25;12.70;44.80
67820;DHT22;54618;52.018;5.576;2022-12-16T05:06:10;12.80;45.50
67820;DHT22;54618;52.018;5.576;2022-12-16T05:08:54;12.70;44.80
67820;DHT22;54618;52.018;5.576;2022-12-16T05:11:38;12.70;44.80
67820;DHT22;54618;52.018;5.576;2022-12-16T05:14:22;12.70;44.90
67820;DHT22;54618;52.018;5.576;2022-12-16T05:17:06;12.70;44.90
67820;DHT22;54618;52.018;5.576;2022-12-16T05:19:50;12.80;45.00
67820;DHT22;54618;52.018;5.576;2022-12-16T05:22:35;12.80;45.00
67820;DHT22;54618;52.018;5.576;2022-12-16T05:25:19;12.70;45.00
67820;DHT22;54618;52.018;5.576;2022-12-16T05:28:04;12.70;45.00
67820;DHT22;54618;52.018;5.576;2022-12-16T05:30:47;12.80;45.00
67820;DHT22;54618;52.018;5.576;2022-12-16T05:33:31;12.80;45.00
67820;DHT22;54618;52.018;5.576;2022-12-16T05:36:15;12.70;45.00
67820;DHT22;54618;52.018;5.576;2022-12-16T05:39:00;12.80;45.10
67820;DHT22;54618;52.018;5.576;2022-12-16T05:41:44;12.70;45.10
67820;DHT22;54618;52.018;5.576;2022-12-16T05:44:28;12.80;45.10
67820;DHT22;54618;52.018;5.576;2022-12-16T05:47:12;12.80;45.10
67820;DHT22;54618;52.018;5.576;2022-12-16T05:49:56;12.80;45.10
67820;DHT22;54618;52.018;5.576;2022-12-16T05:52:40;12.70;45.10
67820;DHT22;54618;52.018;5.576;2022-12-16T05:55:24;12.80;45.20
67820;DHT22;54618;52.018;5.576;2022-12-16T05:58:08;12.80;45.20
67820;DHT22;54618;52.018;5.576;2022-12-16T06:00:53;12.80;45.20
67820;DHT22;54618;52.018;5.576;2022-12-16T06:03:37;12.80;45.20
67820;DHT22;54618;52.018;5.576;2022-12-16T06:06:21;12.70;45.20
67820;DHT22;54618;52.018;5.576;2022-12-16T06:09:05;12.70;45.20
67820;DHT22;54618;52.018;5.576;2022-12-16T06:11:49;12.80;45.30
67820;DHT22;54618;52.018;5.576;2022-12-16T06:14:33;12.80;45.30
67820;DHT22;54618;52.018;5.576;2022-12-16T06:17:18;12.70;45.30
67820;DHT22;54618;52.018;5.576;2022-12-16T06:20:02;12.70;45.20
67820;DHT22;54618;52.018;5.576;2022-12-16T06:22:51;12.80;45.30
67820;DHT22;54618;52.018;5.576;2022-12-16T06:25:35;12.80;45.30
67820;DHT22;54618;52.018;5.576;2022-12-16T06:28:19;12.80;45.30
67820;DHT22;54618;52.018;5.576;2022-12-16T06:31:03;12.80;45.30
67820;DHT22;54618;52.018;5.576;2022-12-16T06:33:47;12.80;45.30
67820;DHT22;54618;52.018;5.576;2022-12-16T06:36:32;12.80;45.40
67820;DHT22;54618;52.018;5.576;2022-12-16T06:39:16;12.80;45.40
67820;DHT22;54618;52.018;5.576;2022-12-16T06:42:00;12.80;45.30
67820;DHT22;54618;52.018;5.576;2022-12-16T06:44:44;12.80;46.00
67820;DHT22;54618;52.018;5.576;2022-12-16T06:47:28;12.80;45.40
67820;DHT22;54618;52.018;5.576;2022-12-16T06:50:12;12.80;45.40
67820;DHT22;54618;52.018;5.576;2022-12-16T06:52:56;12.80;45.40
67820;DHT22;54618;52.018;5.576;2022-12-16T06:55:40;12.80;45.30
67820;DHT22;54618;52.018;5.576;2022-12-16T06:58:24;12.80;45.30
67820;DHT22;54618;52.018;5.576;2022-12-16T07:01:08;12.80;45.30
67820;DHT22;54618;52.018;5.576;2022-12-16T07:03:53;12.80;45.30
67820;DHT22;54618;52.018;5.576;2022-12-16T07:06:36;12.80;46.00
67820;DHT22;54618;52.018;5.576;2022-12-16T07:09:21;12.80;45.40
67820;DHT22;54618;52.018;5.576;2022-12-16T07:12:05;12.80;45.40
67820;DHT22;54618;52.018;5.576;2022-12-16T07:14:49;12.80;45.40
67820;DHT22;54618;52.018;5.576;2022-12-16T07:17:33;12.80;45.40
67820;DHT22;54618;52.018;5.576;2022-12-16T07:20:17;12.80;45.40
67820;DHT22;54618;52.018;5.576;2022-12-16T07:23:01;12.80;45.40
67820;DHT22;54618;52.018;5.576;2022-12-16T07:25:45;12.80;45.40
67820;DHT22;54618;52.018;5.576;2022-12-16T07:28:29;12.80;45.40
67820;DHT22;54618;52.018;5.576;2022-12-16T07:31:13;12.80;45.40
67820;DHT22;54618;52.018;5.576;2022-12-16T07:33:57;12.80;45.40
67820;DHT22;54618;52.018;5.576;2022-12-16T07:36:41;12.80;45.40
67820;DHT22;54618;52.018;5.576;2022-12-16T07:39:25;12.80;45.40
67820;DHT22;54618;52.018;5.576;2022-12-16T07:42:09;12.80;45.40
67820;DHT22;54618;52.018;5.576;2022-12-16T07:44:53;12.80;45.40
67820;DHT22;54618;52.018;5.576;2022-12-16T07:47:45;12.80;45.40
67820;DHT22;54618;52.018;5.576;2022-12-16T07:50:30;12.80;45.40
67820;DHT22;54618;52.018;5.576;2022-12-16T07:53:14;12.80;45.40
67820;DHT22;54618;52.018;5.576;2022-12-16T07:55:58;12.80;45.40
67820;DHT22;54618;52.018;5.576;2022-12-16T07:58:42;12.80;45.40
67820;DHT22;54618;52.018;5.576;2022-12-16T08:01:26;12.80;46.10
67820;DHT22;54618;52.018;5.576;2022-12-16T08:04:10;12.80;45.40
67820;DHT22;54618;52.018;5.576;2022-12-16T08:06:54;12.80;45.40
67820;DHT22;54618;52.018;5.576;2022-12-16T08:09:38;12.80;45.40
67820;DHT22;54618;52.018;5.576;2022-12-16T08:12:23;12.80;45.40
67820;DHT22;54618;52.018;5.576;2022-12-16T08:15:07;12.80;45.40
67820;DHT22;54618;52.018;5.576;2022-12-16T08:17:52;12.80;45.40
67820;DHT22;54618;52.018;5.576;2022-12-16T08:20:36;12.80;45.40
67820;DHT22;54618;52.018;5.576;2022-12-16T08:23:34;12.80;45.40
67820;DHT22;54618;52.018;5.576;2022-12-16T08:26:18;12.80;45.40
67820;DHT22;54618;52.018;5.576;2022-12-16T08:29:03;12.80;45.40
67820;DHT22;54618;52.018;5.576;2022-12-16T08:31:47;12.80;45.40
67820;DHT22;54618;52.018;5.576;2022-12-16T08:34:31;12.80;45.40
67820;DHT22;54618;52.018;5.576;2022-12-16T08:37:16;12.90;45.50
67820;DHT22;54618;52.018;5.576;2022-12-16T08:40:00;12.80;45.50
67820;DHT22;54618;52.018;5.576;2022-12-16T08:42:44;12.80;45.50
67820;DHT22;54618;52.018;5.576;2022-12-16T08:45:28;12.80;45.50
67820;DHT22;54618;52.018;5.576;2022-12-16T08:48:12;12.80;45.40
67820;DHT22;54618;52.018;5.576;2022-12-16T08:51:01;12.80;45.40
67820;DHT22;54618;52.018;5.576;2022-12-16T08:53:45;12.80;45.40
67820;DHT22;54618;52.018;5.576;2022-12-16T08:56:30;12.80;45.40
67820;DHT22;54618;52.018;5.576;2022-12-16T08:59:14;12.80;45.40
67820;DHT22;54618;52.018;5.576;2022-12-16T09:01:58;12.80;45.40
67820;DHT22;54618;52.018;5.576;2022-12-16T09:04:42;12.80;45.40
67820;DHT22;54618;52.018;5.576;2022-12-16T09:07:26;12.80;45.40
67820;DHT22;54618;52.018;5.576;2022-12-16T09:10:10;12.80;45.40
67820;DHT22;54618;52.018;5.576;2022-12-16T09:13:13;12.80;45.40
67820;DHT22;54618;52.018;5.576;2022-12-16T09:15:57;12.80;45.40
67820;DHT22;54618;52.018;5.576;2022-12-16T09:18:41;12.80;45.40
67820;DHT22;54618;52.018;5.576;2022-12-16T09:21:25;12.80;45.40
67820;DHT22;54618;52.018;5.576;2022-12-16T09:24:09;12.80;45.40
67820;DHT22;54618;52.018;5.576;2022-12-16T09:26:53;12.80;45.40
67820;DHT22;54618;52.018;5.576;2022-12-16T09:29:38;12.80;45.40
67820;DHT22;54618;52.018;5.576;2022-12-16T09:32:22;12.80;45.40
67820;DHT22;54618;52.018;5.576;2022-12-16T09:35:07;12.80;45.50
67820;DHT22;54618;52.018;5.576;2022-12-16T09:37:51;12.80;45.40
67820;DHT22;54618;52.018;5.576;2022-12-16T09:40:37;12.80;45.50
67820;DHT22;54618;52.018;5.576;2022-12-16T09:43:54;12.80;45.40
67820;DHT22;54618;52.018;5.576;2022-12-16T09:47:25;12.80;45.40
67820;DHT22;54618;52.018;5.576;2022-12-16T09:50:24;12.80;45.40
67820;DHT22;54618;52.018;5.576;2022-12-16T09:53:14;12.80;45.40
67820;DHT22;54618;52.018;5.576;2022-12-16T09:56:02;12.80;45.40
67820;DHT22;54618;52.018;5.576;2022-12-16T09:59:13;12.80;45.40
67820;DHT22;54618;52.018;5.576;2022-12-16T10:01:58;12.80;45.40
67820;DHT22;54618;52.018;5.576;2022-12-16T10:04:46;12.80;45.40
67820;DHT22;54618;52.018;5.576;2022-12-16T10:07:35;12.80;45.40
67820;DHT22;54618;52.018;5.576;2022-12-16T10:13:23;12.80;45.40
67820;DHT22;54618;52.018;5.576;2022-12-16T10:16:31;12.80;45.40
67820;DHT22;54618;52.018;5.576;2022-12-16T10:26:10;12.70;45.40
67820;DHT22;54618;52.018;5.576;2022-12-16T10:29:11;12.70;45.40
67820;DHT22;54618;52.018;5.576;2022-12-16T10:35:20;12.70;45.40
67820;DHT22;54618;52.018;5.576;2022-12-16T10:38:08;12.80;45.40
67820;DHT22;54618;52.018;5.576;2022-12-16T10:41:02;12.70;45.40
67820;DHT22;54618;52.018;5.576;2022-12-16T10:43:47;12.70;45.40
67820;DHT22;54618;52.018;5.576;2022-12-16T10:46:33;12.70;45.40
67820;DHT22;54618;52.018;5.576;2022-12-16T10:49:18;12.70;45.40
67820;DHT22;54618;52.018;5.576;2022-12-16T10:52:12;12.70;45.40
67820;DHT22;54618;52.018;5.576;2022-12-16T11:00:48;12.70;45.40
67820;DHT22;54618;52.018;5.576;2022-12-16T11:03:34;12.70;45.40
67820;DHT22;54618;52.018;5.576;2022-12-16T11:06:39;12.70;45.50
67820;DHT22;54618;52.018;5.576;2022-12-16T11:09:28;12.70;45.40
67820;DHT22;54618;52.018;5.576;2022-12-16T11:14:57;12.70;45.50
67820;DHT22;54618;52.018;5.576;2022-12-16T11:18:01;12.70;45.50
67820;DHT22;54618;52.018;5.576;2022-12-16T11:24:18;12.70;45.50
67820;DHT22;54618;52.018;5.576;2022-12-16T11:27:14;12.70;45.50
67820;DHT22;54618;52.018;5.576;2022-12-16T11:30:10;12.70;45.50
67820;DHT22;54618;52.018;5.576;2022-12-16T11:32:59;12.70;45.50
67820;DHT22;54618;52.018;5.576;2022-12-16T11:35:50;12.70;45.50
67820;DHT22;54618;52.018;5.576;2022-12-16T11:41:28;12.70;45.50
67820;DHT22;54618;52.018;5.576;2022-12-16T11:44:19;12.70;45.60
67820;DHT22;54618;52.018;5.576;2022-12-16T11:47:19;12.70;45.60
67820;DHT22;54618;52.018;5.576;2022-12-16T11:50:10;12.70;45.60
67820;DHT22;54618;52.018;5.576;2022-12-16T11:52:56;12.70;45.60
67820;DHT22;54618;52.018;5.576;2022-12-16T11:55:44;12.70;45.60
67820;DHT22;54618;52.018;5.576;2022-12-16T11:58:43;12.70;45.60
67820;DHT22;54618;52.018;5.576;2022-12-16T12:01:46;12.70;45.60
67820;DHT22;54618;52.018;5.576;2022-12-16T12:04:33;12.70;45.70
67820;DHT22;54618;52.018;5.576;2022-12-16T12:07:20;12.70;46.30
67820;DHT22;54618;52.018;5.576;2022-12-16T12:13:33;12.70;45.70
67820;DHT22;54618;52.018;5.576;2022-12-16T12:19:43;12.70;45.70
67820;DHT22;54618;52.018;5.576;2022-12-16T12:22:33;12.70;45.70
67820;DHT22;54618;52.018;5.576;2022-12-16T12:31:09;12.70;45.80
67820;DHT22;54618;52.018;5.576;2022-12-16T12:34:04;12.70;46.00
67820;DHT22;54618;52.018;5.576;2022-12-16T12:37:07;12.70;45.80
67820;DHT22;54618;52.018;5.576;2022-12-16T12:40:15;12.70;45.90
67820;DHT22;54618;52.018;5.576;2022-12-16T12:43:06;12.70;45.80
67820;DHT22;54618;52.018;5.576;2022-12-16T12:46:07;12.70;45.80
67820;DHT22;54618;52.018;5.576;2022-12-16T12:49:18;12.70;45.80
67820;DHT22;54618;52.018;5.576;2022-12-16T12:55:03;12.70;45.80
67820;DHT22;54618;52.018;5.576;2022-12-16T12:57:51;12.70;45.80
67820;DHT22;54618;52.018;5.576;2022-12-16T13:00:49;12.70;45.90
67820;DHT22;54618;52.018;5.576;2022-12-16T13:03:55;12.70;45.90
67820;DHT22;54618;52.018;5.576;2022-12-16T13:06:42;12.70;45.90
67820;DHT22;54618;52.018;5.576;2022-12-16T13:09:38;12.70;45.90
67820;DHT22;54618;52.018;5.576;2022-12-16T13:12:33;12.80;45.90
67820;DHT22;54618;52.018;5.576;2022-12-16T13:18:31;12.70;45.90
67820;DHT22;54618;52.018;5.576;2022-12-16T13:24:36;12.70;46.40
67820;DHT22;54618;52.018;5.576;2022-12-16T13:27:22;12.70;46.50
67820;DHT22;54618;52.018;5.576;2022-12-16T13:32:55;12.80;46.50
67820;DHT22;54618;52.018;5.576;2022-12-16T13:35:57;12.90;46.50
67820;DHT22;54618;52.018;5.576;2022-12-16T13:38:47;12.90;46.40
67820;DHT22;54618;52.018;5.576;2022-12-16T13:50:42;13.00;46.40
67820;DHT22;54618;52.018;5.576;2022-12-16T13:53:35;13.00;46.40
67820;DHT22;54618;52.018;5.576;2022-12-16T13:56:30;13.00;46.30
67820;DHT22;54618;52.018;5.576;2022-12-16T13:59:19;13.00;46.30
67820;DHT22;54618;52.018;5.576;2022-12-16T14:02:24;13.00;46.20
67820;DHT22;54618;52.018;5.576;2022-12-16T14:05:30;13.00;46.20
67820;DHT22;54618;52.018;5.576;2022-12-16T14:08:18;13.10;46.30
67820;DHT22;54618;52.018;5.576;2022-12-16T14:11:06;13.10;46.20
67820;DHT22;54618;52.018;5.576;2022-12-16T14:14:03;13.10;46.80
67820;DHT22;54618;52.018;5.576;2022-12-16T14:16:58;13.00;46.10
67820;DHT22;54618;52.018;5.576;2022-12-16T14:20:08;13.00;46.10
67820;DHT22;54618;52.018;5.576;2022-12-16T14:23:51;13.00;46.10
67820;DHT22;54618;52.018;5.576;2022-12-16T14:26:27;12.90;46.10
67820;DHT22;54618;52.018;5.576;2022-12-16T14:29:29;12.90;46.10
67820;DHT22;54618;52.018;5.576;2022-12-16T14:32:31;12.90;46.20
67820;DHT22;54618;52.018;5.576;2022-12-16T14:35:21;12.90;46.10
67820;DHT22;54618;52.018;5.576;2022-12-16T14:38:26;12.90;46.20
67820;DHT22;54618;52.018;5.576;2022-12-16T14:41:12;12.90;46.20
67820;DHT22;54618;52.018;5.576;2022-12-16T14:43:56;12.90;46.20
67820;DHT22;54618;52.018;5.576;2022-12-16T14:46:40;12.90;46.20
67820;DHT22;54618;52.018;5.576;2022-12-16T14:49:28;12.90;46.30
67820;DHT22;54618;52.018;5.576;2022-12-16T14:52:24;12.80;46.20
67820;DHT22;54618;52.018;5.576;2022-12-16T14:55:24;12.80;46.20
67820;DHT22;54618;52.018;5.576;2022-12-16T14:58:15;12.90;46.40
67820;DHT22;54618;52.018;5.576;2022-12-16T15:01:14;12.80;46.30
67820;DHT22;54618;52.018;5.576;2022-12-16T15:04:07;12.80;46.40
67820;DHT22;54618;52.018;5.576;2022-12-16T15:06:54;12.80;46.40
67820;DHT22;54618;52.018;5.576;2022-12-16T15:09:41;12.80;46.40
67820;DHT22;54618;52.018;5.576;2022-12-16T15:12:31;12.80;46.40
67820;DHT22;54618;52.018;5.576;2022-12-16T15:15:37;12.80;46.40
67820;DHT22;54618;52.018;5.576;2022-12-16T15:21:16;12.80;46.50
67820;DHT22;54618;52.018;5.576;2022-12-16T15:24:00;12.80;46.60
67820;DHT22;54618;52.018;5.576;2022-12-16T15:26:44;12.80;46.90
67820;DHT22;54618;52.018;5.576;2022-12-16T15:29:40;12.90;47.10
67820;DHT22;54618;52.018;5.576;2022-12-16T15:35:09;13.00;46.90
67820;DHT22;54618;52.018;5.576;2022-12-16T15:37:53;13.10;47.00
67820;DHT22;54618;52.018;5.576;2022-12-16T15:40:39;13.10;46.80
67820;DHT22;54618;52.018;5.576;2022-12-16T15:43:29;13.20;46.80
67820;DHT22;54618;52.018;5.576;2022-12-16T15:46:22;13.20;46.70
67820;DHT22;54618;52.018;5.576;2022-12-16T15:49:29;13.30;46.60
67820;DHT22;54618;52.018;5.576;2022-12-16T15:55:35;13.30;46.50
67820;DHT22;54618;52.018;5.576;2022-12-16T15:58:30;13.30;46.50
67820;DHT22;54618;52.018;5.576;2022-12-16T16:01:16;13.40;46.50
67820;DHT22;54618;52.018;5.576;2022-12-16T16:04:02;13.40;46.40
67820;DHT22;54618;52.018;5.576;2022-12-16T16:06:51;13.40;47.00
67820;DHT22;54618;52.018;5.576;2022-12-16T16:09:38;13.40;46.30
67820;DHT22;54618;52.018;5.576;2022-12-16T16:12:24;13.40;46.30
67820;DHT22;54618;52.018;5.576;2022-12-16T16:15:13;13.40;46.30
67820;DHT22;54618;52.018;5.576;2022-12-16T16:18:00;13.40;46.20
67820;DHT22;54618;52.018;5.576;2022-12-16T16:20:45;13.40;46.20
67820;DHT22;54618;52.018;5.576;2022-12-16T16:23:30;13.50;46.30
67820;DHT22;54618;52.018;5.576;2022-12-16T16:26:16;13.50;46.20
67820;DHT22;54618;52.018;5.576;2022-12-16T16:29:01;13.50;46.30
67820;DHT22;54618;52.018;5.576;2022-12-16T16:31:45;13.50;46.20
67820;DHT22;54618;52.018;5.576;2022-12-16T16:34:29;13.50;46.20
67820;DHT22;54618;52.018;5.576;2022-12-16T16:37:16;13.50;46.20
67820;DHT22;54618;52.018;5.576;2022-12-16T16:40:04;13.50;46.10
67820;DHT22;54618;52.018;5.576;2022-12-16T16:42:53;13.50;46.10
67820;DHT22;54618;52.018;5.576;2022-12-16T16:45:37;13.50;46.10
67820;DHT22;54618;52.018;5.576;2022-12-16T16:48:29;13.50;46.10
67820;DHT22;54618;52.018;5.576;2022-12-16T16:51:13;13.50;46.10
67820;DHT22;54618;52.018;5.576;2022-12-16T16:53:57;13.50;46.10
67820;DHT22;54618;52.018;5.576;2022-12-16T16:56:41;13.50;46.10
67820;DHT22;54618;52.018;5.576;2022-12-16T16:59:25;13.50;46.10
67820;DHT22;54618;52.018;5.576;2022-12-16T17:02:28;13.50;46.10
67820;DHT22;54618;52.018;5.576;2022-12-16T17:05:12;13.50;46.10
67820;DHT22;54618;52.018;5.576;2022-12-16T17:07:57;13.50;46.20
67820;DHT22;54618;52.018;5.576;2022-12-16T17:10:41;13.40;46.10
67820;DHT22;54618;52.018;5.576;2022-12-16T17:13:26;13.50;46.20
67820;DHT22;54618;52.018;5.576;2022-12-16T17:16:11;13.40;46.10
67820;DHT22;54618;52.018;5.576;2022-12-16T17:18:56;13.50;46.20
67820;DHT22;54618;52.018;5.576;2022-12-16T17:21:40;13.40;46.20
67820;DHT22;54618;52.018;5.576;2022-12-16T17:24:24;13.40;46.20
67820;DHT22;54618;52.018;5.576;2022-12-16T17:27:20;13.40;46.20
67820;DHT22;54618;52.018;5.576;2022-12-16T17:30:16;13.40;46.20
67820;DHT22;54618;52.018;5.576;2022-12-16T17:33:01;13.40;46.30
67820;DHT22;54618;52.018;5.576;2022-12-16T17:35:48;13.40;46.30
67820;DHT22;54618;52.018;5.576;2022-12-16T17:38:36;13.40;46.30
67820;DHT22;54618;52.018;5.576;2022-12-16T17:41:21;13.40;46.20
67820;DHT22;54618;52.018;5.576;2022-12-16T17:44:05;13.40;46.20
67820;DHT22;54618;52.018;5.576;2022-12-16T17:46:49;13.40;46.20
67820;DHT22;54618;52.018;5.576;2022-12-16T17:49:33;13.30;46.20
67820;DHT22;54618;52.018;5.576;2022-12-16T17:52:17;13.30;46.20
67820;DHT22;54618;52.018;5.576;2022-12-16T17:55:01;13.30;46.80
67820;DHT22;54618;52.018;5.576;2022-12-16T17:57:45;13.30;46.20
67820;DHT22;54618;52.018;5.576;2022-12-16T18:00:29;13.30;46.20
67820;DHT22;54618;52.018;5.576;2022-12-16T18:03:13;13.30;46.30
67820;DHT22;54618;52.018;5.576;2022-12-16T18:05:57;13.30;46.30
67820;DHT22;54618;52.018;5.576;2022-12-16T18:08:41;13.30;46.30
67820;DHT22;54618;52.018;5.576;2022-12-16T18:11:25;13.30;46.30
67820;DHT22;54618;52.018;5.576;2022-12-16T18:14:09;13.30;46.30
67820;DHT22;54618;52.018;5.576;2022-12-16T18:16:53;13.30;46.30
67820;DHT22;54618;52.018;5.576;2022-12-16T18:19:37;13.30;46.30
67820;DHT22;54618;52.018;5.576;2022-12-16T18:22:22;13.30;46.30
67820;DHT22;54618;52.018;5.576;2022-12-16T18:25:06;13.30;46.30
67820;DHT22;54618;52.018;5.576;2022-12-16T18:27:50;13.30;46.30
67820;DHT22;54618;52.018;5.576;2022-12-16T18:30:35;13.30;46.30
67820;DHT22;54618;52.018;5.576;2022-12-16T18:33:19;13.30;46.30
67820;DHT22;54618;52.018;5.576;2022-12-16T18:36:04;13.30;46.40
67820;DHT22;54618;52.018;5.576;2022-12-16T18:38:47;13.30;46.40
67820;DHT22;54618;52.018;5.576;2022-12-16T18:41:31;13.30;46.30